createdAt,value
2017-03-09T00:00:13.722Z,21.58
2017-03-09T00:00:54.235Z,21.55
2017-03-09T00:01:34.731Z,21.53
2017-03-09T00:02:15.226Z,21.53
2017-03-09T00:02:55.734Z,21.59
2017-03-09T00:03:36.235Z,21.52
2017-03-09T00:04:16.729Z,21.67
2017-03-09T00:04:57.563Z,21.53
2017-03-09T00:05:38.054Z,21.51
2017-03-09T00:06:19.256Z,21.62
2017-03-09T00:06:59.756Z,21.62
2017-03-09T00:07:40.252Z,21.62
2017-03-09T00:08:20.733Z,21.56
2017-03-09T00:09:01.252Z,21.58
2017-03-09T00:09:41.735Z,21.56
2017-03-09T00:10:22.554Z,21.55
2017-03-09T00:11:03.053Z,21.55
2017-03-09T00:11:43.515Z,21.64
2017-03-09T00:12:24.021Z,21.61
2017-03-09T00:13:04.506Z,21.66
2017-03-09T00:13:44.987Z,21.55
2017-03-09T00:14:25.483Z,21.67
2017-03-09T00:15:06.016Z,21.66
2017-03-09T00:15:46.486Z,21.56
2017-03-09T00:16:26.995Z,21.53
2017-03-09T00:17:07.506Z,21.55
2017-03-09T00:17:48.001Z,21.53
2017-03-09T00:18:28.486Z,21.68
2017-03-09T00:19:08.968Z,21.66
2017-03-09T00:19:49.467Z,21.66
2017-03-09T00:20:29.927Z,21.51
2017-03-09T00:21:10.430Z,21.64
2017-03-09T00:21:50.924Z,21.55
2017-03-09T00:22:31.398Z,21.58
2017-03-09T00:23:11.881Z,21.66
2017-03-09T00:23:52.384Z,21.59
2017-03-09T00:24:32.881Z,21.62
2017-03-09T00:25:13.390Z,21.56
2017-03-09T00:25:53.879Z,21.67
2017-03-09T00:26:34.367Z,21.61
2017-03-09T00:27:14.857Z,21.62
2017-03-09T00:27:55.360Z,21.66
2017-03-09T00:28:35.843Z,21.66
2017-03-09T00:29:16.348Z,21.66
2017-03-09T00:29:56.834Z,21.62
2017-03-09T00:30:37.317Z,21.62
2017-03-09T00:31:17.817Z,21.61
2017-03-09T00:31:58.289Z,21.64
2017-03-09T00:32:38.797Z,21.61
2017-03-09T00:33:19.278Z,21.64
2017-03-09T00:33:59.760Z,21.52
2017-03-09T00:34:40.252Z,21.53
2017-03-09T00:35:20.739Z,21.62
2017-03-09T00:36:01.223Z,21.51
2017-03-09T00:36:41.723Z,21.66
2017-03-09T00:37:22.221Z,21.61
2017-03-09T00:38:02.706Z,21.61
2017-03-09T00:38:43.222Z,21.62
2017-03-09T00:39:23.707Z,21.66
2017-03-09T00:40:04.190Z,21.62
2017-03-09T00:40:44.684Z,21.66
2017-03-09T00:41:25.173Z,21.61
2017-03-09T00:42:05.668Z,21.58
2017-03-09T00:42:46.161Z,21.66
2017-03-09T00:43:26.650Z,21.61
2017-03-09T00:44:07.140Z,21.62
2017-03-09T00:44:47.628Z,21.64
2017-03-09T00:45:28.105Z,21.58
2017-03-09T00:46:08.624Z,21.62
2017-03-09T00:46:49.112Z,21.7
2017-03-09T00:47:29.606Z,21.56
2017-03-09T00:48:10.109Z,21.62
2017-03-09T00:48:50.605Z,21.61
2017-03-09T00:49:31.093Z,21.55
2017-03-09T00:50:11.582Z,21.67
2017-03-09T00:50:52.067Z,21.55
2017-03-09T00:51:32.563Z,21.61
2017-03-09T00:52:13.043Z,21.62
2017-03-09T00:52:53.540Z,21.67
2017-03-09T00:53:34.030Z,21.68
2017-03-09T00:54:14.504Z,21.62
2017-03-09T00:54:54.987Z,21.62
2017-03-09T00:55:35.486Z,21.58
2017-03-09T00:56:15.998Z,21.56
2017-03-09T00:56:56.485Z,21.66
2017-03-09T00:57:36.999Z,21.68
2017-03-09T00:58:17.498Z,21.66
2017-03-09T00:58:57.972Z,21.66
2017-03-09T00:59:38.474Z,21.66
2017-03-09T01:00:18.957Z,21.67
2017-03-09T01:00:59.468Z,21.62
2017-03-09T01:01:39.947Z,21.53
2017-03-09T01:02:20.429Z,21.56
2017-03-09T01:03:00.936Z,21.56
2017-03-09T01:03:41.440Z,21.62
2017-03-09T01:04:21.945Z,21.66
2017-03-09T01:05:02.444Z,21.62
2017-03-09T01:05:42.930Z,21.68
2017-03-09T01:06:23.433Z,21.62
2017-03-09T01:07:03.947Z,21.59
2017-03-09T01:07:44.421Z,21.68
2017-03-09T01:08:24.908Z,21.66
2017-03-09T01:09:05.403Z,21.64
2017-03-09T01:09:45.906Z,21.59
2017-03-09T01:10:26.396Z,21.62
2017-03-09T01:11:06.877Z,21.59
2017-03-09T01:11:47.359Z,21.62
2017-03-09T01:12:27.848Z,21.71
2017-03-09T01:13:08.358Z,21.7
2017-03-09T01:13:48.835Z,21.68
2017-03-09T01:14:29.318Z,21.71
2017-03-09T01:15:09.801Z,21.66
2017-03-09T01:15:50.315Z,21.64
2017-03-09T01:16:30.804Z,21.71
2017-03-09T01:17:11.301Z,21.66
2017-03-09T01:17:51.862Z,21.61
2017-03-09T01:18:32.265Z,21.71
2017-03-09T01:19:12.747Z,21.68
2017-03-09T01:19:53.299Z,21.64
2017-03-09T01:20:33.801Z,21.71
2017-03-09T01:21:14.603Z,21.64
2017-03-09T01:21:55.102Z,21.68
2017-03-09T01:22:35.586Z,21.61
2017-03-09T01:23:16.089Z,21.62
2017-03-09T01:23:56.574Z,21.61
2017-03-09T01:24:37.079Z,21.68
2017-03-09T01:25:18.327Z,21.64
2017-03-09T01:25:58.076Z,21.66
2017-03-09T01:26:38.564Z,21.64
2017-03-09T01:27:19.037Z,21.71
2017-03-09T01:27:59.561Z,21.58
2017-03-09T01:28:40.025Z,21.67
2017-03-09T01:29:20.515Z,21.68
2017-03-09T01:30:01.024Z,21.67
2017-03-09T01:30:41.522Z,21.61
2017-03-09T01:31:22.020Z,21.67
2017-03-09T01:32:02.505Z,21.68
2017-03-09T01:32:42.993Z,21.68
2017-03-09T01:33:23.488Z,21.61
2017-03-09T01:34:03.984Z,21.62
2017-03-09T01:34:44.475Z,21.7
2017-03-09T01:35:24.967Z,21.68
2017-03-09T01:36:05.465Z,21.64
2017-03-09T01:36:45.967Z,21.62
2017-03-09T01:37:26.465Z,21.64
2017-03-09T01:38:06.932Z,21.58
2017-03-09T01:38:47.441Z,21.62
2017-03-09T01:39:27.931Z,21.68
2017-03-09T01:40:08.438Z,21.59
2017-03-09T01:40:48.919Z,21.67
2017-03-09T01:41:29.409Z,21.68
2017-03-09T01:42:09.895Z,21.61
2017-03-09T01:42:50.377Z,21.71
2017-03-09T01:43:30.878Z,21.73
2017-03-09T01:44:11.422Z,21.68
2017-03-09T01:44:51.900Z,21.62
2017-03-09T01:45:32.387Z,21.68
2017-03-09T01:46:12.876Z,21.7
2017-03-09T01:46:53.641Z,21.74
2017-03-09T01:47:34.126Z,21.58
2017-03-09T01:48:14.607Z,21.67
2017-03-09T01:48:55.097Z,21.7
2017-03-09T01:49:35.619Z,21.71
2017-03-09T01:50:16.104Z,21.66
2017-03-09T01:50:56.591Z,21.64
2017-03-09T01:51:37.078Z,21.7
2017-03-09T01:52:17.674Z,21.67
2017-03-09T01:52:58.123Z,21.67
2017-03-09T01:53:38.646Z,21.71
2017-03-09T01:54:19.110Z,21.71
2017-03-09T01:54:59.601Z,21.7
2017-03-09T01:55:40.087Z,21.67
2017-03-09T01:56:20.585Z,21.74
2017-03-09T01:57:01.089Z,21.71
2017-03-09T01:57:41.588Z,21.7
2017-03-09T01:58:22.072Z,21.68
2017-03-09T01:59:02.569Z,21.64
2017-03-09T01:59:43.064Z,21.7
2017-03-09T02:00:23.544Z,21.66
2017-03-09T02:01:04.033Z,21.73
2017-03-09T02:01:44.520Z,21.67
2017-03-09T02:02:24.995Z,21.7
2017-03-09T02:03:05.481Z,21.7
2017-03-09T02:03:45.964Z,21.73
2017-03-09T02:04:26.463Z,21.7
2017-03-09T02:05:06.956Z,21.66
2017-03-09T02:05:47.440Z,21.73
2017-03-09T02:06:27.925Z,21.68
2017-03-09T02:07:08.411Z,21.71
2017-03-09T02:07:48.899Z,21.71
2017-03-09T02:08:29.406Z,21.74
2017-03-09T02:09:09.891Z,21.66
2017-03-09T02:09:50.387Z,21.71
2017-03-09T02:10:30.879Z,21.7
2017-03-09T02:11:11.385Z,21.71
2017-03-09T02:11:51.879Z,21.61
2017-03-09T02:12:32.363Z,21.66
2017-03-09T02:13:12.851Z,21.7
2017-03-09T02:13:53.337Z,21.68
2017-03-09T02:14:33.843Z,21.73
2017-03-09T02:15:14.324Z,21.73
2017-03-09T02:15:54.809Z,21.7
2017-03-09T02:16:35.301Z,21.71
2017-03-09T02:17:15.817Z,21.67
2017-03-09T02:17:56.332Z,21.7
2017-03-09T02:18:36.821Z,21.7
2017-03-09T02:19:17.316Z,21.66
2017-03-09T02:19:57.828Z,21.73
2017-03-09T02:20:38.310Z,21.7
2017-03-09T02:21:18.825Z,21.7
2017-03-09T02:21:59.315Z,21.67
2017-03-09T02:22:39.813Z,21.73
2017-03-09T02:23:20.306Z,21.68
2017-03-09T02:24:00.791Z,21.67
2017-03-09T02:24:41.292Z,21.66
2017-03-09T02:25:21.772Z,21.7
2017-03-09T02:26:02.248Z,21.66
2017-03-09T02:26:42.738Z,21.62
2017-03-09T02:27:23.223Z,21.67
2017-03-09T02:28:03.715Z,21.71
2017-03-09T02:28:44.212Z,21.67
2017-03-09T02:29:24.709Z,21.71
2017-03-09T02:30:05.197Z,21.68
2017-03-09T02:30:45.705Z,21.67
2017-03-09T02:31:26.219Z,21.71
2017-03-09T02:32:06.729Z,21.71
2017-03-09T02:32:47.205Z,21.68
2017-03-09T02:33:27.704Z,21.67
2017-03-09T02:34:08.192Z,21.67
2017-03-09T02:34:48.699Z,21.7
2017-03-09T02:35:29.207Z,21.61
2017-03-09T02:36:09.693Z,21.66
2017-03-09T02:36:50.182Z,21.67
2017-03-09T02:37:30.671Z,21.66
2017-03-09T02:38:11.175Z,21.7
2017-03-09T02:38:51.664Z,21.67
2017-03-09T02:39:32.153Z,21.64
2017-03-09T02:40:12.646Z,21.7
2017-03-09T02:40:53.160Z,21.7
2017-03-09T02:41:33.644Z,21.66
2017-03-09T02:42:14.141Z,21.71
2017-03-09T02:42:54.638Z,21.67
2017-03-09T02:43:35.136Z,21.7
2017-03-09T02:44:15.626Z,21.7
2017-03-09T02:44:56.119Z,21.71
2017-03-09T02:45:36.647Z,21.7
2017-03-09T02:46:17.146Z,21.68
2017-03-09T02:46:57.635Z,21.68
2017-03-09T02:47:38.139Z,21.74
2017-03-09T02:48:18.631Z,21.67
2017-03-09T02:48:59.135Z,21.66
2017-03-09T02:49:39.631Z,21.66
2017-03-09T02:50:20.131Z,21.68
2017-03-09T02:51:00.618Z,21.66
2017-03-09T02:51:41.112Z,21.64
2017-03-09T02:52:21.611Z,21.62
2017-03-09T02:53:02.082Z,21.67
2017-03-09T02:53:42.590Z,21.7
2017-03-09T02:54:23.083Z,21.71
2017-03-09T02:55:03.572Z,21.67
2017-03-09T02:55:44.076Z,21.67
2017-03-09T02:56:24.568Z,21.7
2017-03-09T02:57:05.058Z,21.66
2017-03-09T02:57:45.863Z,21.68
2017-03-09T02:58:26.362Z,21.76
2017-03-09T02:59:06.857Z,21.64
2017-03-09T02:59:47.361Z,21.61
2017-03-09T03:00:27.858Z,21.68
2017-03-09T03:01:08.354Z,21.7
2017-03-09T03:01:48.837Z,21.67
2017-03-09T03:02:29.335Z,21.7
2017-03-09T03:03:09.826Z,21.67
2017-03-09T03:03:50.336Z,21.67
2017-03-09T03:04:30.830Z,21.64
2017-03-09T03:05:11.317Z,21.7
2017-03-09T03:05:51.803Z,21.64
2017-03-09T03:06:32.285Z,21.62
2017-03-09T03:07:12.769Z,21.66
2017-03-09T03:07:53.271Z,21.64
2017-03-09T03:08:33.780Z,21.71
2017-03-09T03:09:14.277Z,21.68
2017-03-09T03:09:54.764Z,21.68
2017-03-09T03:10:35.249Z,21.62
2017-03-09T03:11:15.734Z,21.64
2017-03-09T03:11:56.245Z,21.67
2017-03-09T03:12:36.721Z,21.64
2017-03-09T03:13:17.210Z,21.66
2017-03-09T03:13:57.698Z,21.77
2017-03-09T03:14:38.191Z,21.71
2017-03-09T03:15:18.688Z,21.67
2017-03-09T03:15:59.180Z,21.71
2017-03-09T03:16:39.659Z,21.67
2017-03-09T03:17:20.176Z,21.66
2017-03-09T03:18:00.651Z,21.68
2017-03-09T03:18:41.140Z,21.67
2017-03-09T03:19:21.635Z,21.71
2017-03-09T03:20:02.130Z,21.68
2017-03-09T03:20:42.620Z,21.7
2017-03-09T03:21:23.102Z,21.62
2017-03-09T03:22:03.607Z,21.71
2017-03-09T03:22:44.093Z,21.66
2017-03-09T03:23:24.869Z,21.64
2017-03-09T03:25:37.670Z,21.71
2017-03-09T03:26:18.152Z,21.64
2017-03-09T03:26:58.644Z,21.66
2017-03-09T03:27:39.166Z,21.68
2017-03-09T03:28:19.986Z,21.71
2017-03-09T03:29:00.481Z,21.71
2017-03-09T03:29:40.982Z,21.66
2017-03-09T03:30:21.479Z,21.68
2017-03-09T03:31:01.968Z,21.76
2017-03-09T03:31:42.458Z,21.68
2017-03-09T03:32:22.951Z,21.7
2017-03-09T03:33:03.450Z,21.76
2017-03-09T03:33:43.935Z,21.71
2017-03-09T03:34:24.413Z,21.67
2017-03-09T03:35:04.922Z,21.67
2017-03-09T03:35:45.417Z,21.64
2017-03-09T03:36:25.909Z,21.73
2017-03-09T03:37:06.395Z,21.66
2017-03-09T03:37:46.892Z,21.68
2017-03-09T03:38:27.372Z,21.68
2017-03-09T03:39:07.865Z,21.7
2017-03-09T03:39:48.353Z,21.71
2017-03-09T03:40:28.841Z,21.64
2017-03-09T03:41:09.345Z,21.7
2017-03-09T03:41:49.828Z,21.68
2017-03-09T03:42:30.338Z,21.77
2017-03-09T03:43:10.815Z,21.7
2017-03-09T03:43:51.291Z,21.66
2017-03-09T03:44:31.790Z,21.64
2017-03-09T03:45:12.288Z,21.68
2017-03-09T03:45:52.783Z,21.64
2017-03-09T03:46:33.254Z,21.74
2017-03-09T03:47:13.767Z,21.66
2017-03-09T03:47:54.255Z,21.67
2017-03-09T03:48:34.749Z,21.67
2017-03-09T03:49:15.234Z,21.7
2017-03-09T03:49:55.732Z,21.76
2017-03-09T03:50:36.233Z,21.67
2017-03-09T03:51:16.711Z,21.7
2017-03-09T03:51:57.207Z,21.7
2017-03-09T03:52:37.707Z,21.71
2017-03-09T03:53:18.410Z,21.7
2017-03-09T03:53:58.881Z,21.67
2017-03-09T03:54:39.372Z,21.67
2017-03-09T03:55:19.856Z,21.7
2017-03-09T03:56:00.343Z,21.67
2017-03-09T03:56:40.840Z,21.68
2017-03-09T03:57:21.360Z,21.67
2017-03-09T03:58:01.858Z,21.7
2017-03-09T03:58:42.341Z,21.62
2017-03-09T03:59:22.827Z,21.71
2017-03-09T04:00:03.328Z,21.68
2017-03-09T04:00:43.833Z,21.7
2017-03-09T04:01:24.316Z,21.67
2017-03-09T04:02:04.807Z,21.67
2017-03-09T04:02:45.278Z,21.68
2017-03-09T04:03:25.773Z,21.7
2017-03-09T04:04:06.260Z,21.67
2017-03-09T04:04:46.764Z,21.74
2017-03-09T04:05:27.246Z,21.73
2017-03-09T04:06:07.746Z,21.67
2017-03-09T04:06:48.244Z,21.74
2017-03-09T04:07:28.727Z,21.7
2017-03-09T04:08:09.218Z,21.71
2017-03-09T04:08:49.698Z,21.64
2017-03-09T04:09:30.193Z,21.67
2017-03-09T04:10:10.692Z,21.66
2017-03-09T04:10:51.179Z,21.64
2017-03-09T04:11:31.690Z,21.66
2017-03-09T04:12:12.179Z,21.68
2017-03-09T04:12:52.662Z,21.7
2017-03-09T04:13:33.147Z,21.68
2017-03-09T04:14:13.639Z,21.7
2017-03-09T04:14:54.142Z,21.67
2017-03-09T04:15:34.637Z,21.64
2017-03-09T04:16:15.134Z,21.71
2017-03-09T04:16:55.627Z,21.64
2017-03-09T04:17:36.134Z,21.68
2017-03-09T04:18:16.621Z,21.71
2017-03-09T04:18:57.453Z,21.7
2017-03-09T04:19:37.938Z,21.71
2017-03-09T04:20:18.437Z,21.74
2017-03-09T04:20:58.931Z,21.67
2017-03-09T04:21:39.440Z,21.67
2017-03-09T04:22:19.924Z,21.66
2017-03-09T04:23:00.421Z,21.7
2017-03-09T04:23:40.916Z,21.67
2017-03-09T04:24:21.406Z,21.71
2017-03-09T04:25:01.891Z,21.73
2017-03-09T04:25:42.382Z,21.7
2017-03-09T04:26:22.866Z,21.73
2017-03-09T04:27:03.374Z,21.67
2017-03-09T04:27:43.853Z,21.67
2017-03-09T04:28:24.331Z,21.7
2017-03-09T04:29:04.831Z,21.7
2017-03-09T04:29:45.313Z,21.66
2017-03-09T04:30:25.809Z,21.7
2017-03-09T04:31:06.299Z,21.67
2017-03-09T04:31:46.789Z,21.64
2017-03-09T04:32:27.295Z,21.64
2017-03-09T04:33:07.773Z,21.67
2017-03-09T04:33:48.253Z,21.68
2017-03-09T04:34:28.780Z,21.64
2017-03-09T04:35:09.270Z,21.66
2017-03-09T04:35:49.765Z,21.64
2017-03-09T04:36:30.259Z,21.71
2017-03-09T04:37:10.749Z,21.68
2017-03-09T04:37:51.236Z,21.68
2017-03-09T04:38:31.741Z,21.68
2017-03-09T04:39:12.218Z,21.68
2017-03-09T04:39:52.714Z,21.7
2017-03-09T04:40:33.207Z,21.67
2017-03-09T04:41:13.700Z,21.68
2017-03-09T04:41:54.187Z,21.7
2017-03-09T04:42:34.672Z,21.68
2017-03-09T04:43:15.165Z,21.73
2017-03-09T04:43:55.649Z,21.71
2017-03-09T04:44:36.143Z,21.76
2017-03-09T04:45:16.638Z,21.73
2017-03-09T04:45:57.117Z,21.78
2017-03-09T04:46:37.620Z,21.76
2017-03-09T04:47:18.103Z,21.76
2017-03-09T04:47:58.592Z,21.78
2017-03-09T04:48:39.093Z,21.74
2017-03-09T04:49:19.561Z,21.7
2017-03-09T04:50:00.052Z,21.71
2017-03-09T04:50:40.551Z,21.82
2017-03-09T04:51:21.035Z,21.68
2017-03-09T04:52:01.522Z,21.67
2017-03-09T04:52:42.016Z,21.71
2017-03-09T04:53:22.516Z,21.74
2017-03-09T04:54:02.990Z,21.71
2017-03-09T04:54:43.478Z,21.7
2017-03-09T04:55:23.971Z,21.67
2017-03-09T04:56:04.451Z,21.74
2017-03-09T04:56:44.942Z,21.71
2017-03-09T04:57:25.451Z,21.7
2017-03-09T04:58:05.944Z,21.71
2017-03-09T04:58:46.440Z,21.68
2017-03-09T04:59:26.929Z,21.7
2017-03-09T05:00:07.412Z,21.7
2017-03-09T05:00:47.896Z,21.7
2017-03-09T05:01:28.384Z,21.67
2017-03-09T05:02:08.870Z,21.78
2017-03-09T05:02:49.542Z,21.71
2017-03-09T05:03:30.034Z,21.78
2017-03-09T05:04:10.525Z,21.7
2017-03-09T05:04:51.229Z,21.78
2017-03-09T05:05:31.714Z,21.73
2017-03-09T05:06:12.212Z,21.7
2017-03-09T05:06:52.709Z,21.68
2017-03-09T05:07:33.182Z,21.74
2017-03-09T05:08:13.680Z,21.76
2017-03-09T05:08:54.189Z,21.74
2017-03-09T05:09:34.678Z,21.78
2017-03-09T05:10:15.190Z,21.73
2017-03-09T05:10:55.671Z,21.74
2017-03-09T05:11:36.160Z,21.66
2017-03-09T05:12:16.644Z,21.68
2017-03-09T05:12:57.178Z,21.8
2017-03-09T05:13:37.676Z,21.78
2017-03-09T05:14:18.180Z,21.68
2017-03-09T05:14:58.682Z,21.73
2017-03-09T05:15:39.164Z,21.73
2017-03-09T05:16:19.650Z,21.7
2017-03-09T05:17:00.154Z,21.73
2017-03-09T05:17:40.639Z,21.73
2017-03-09T05:18:21.152Z,21.74
2017-03-09T05:19:01.627Z,21.76
2017-03-09T05:19:42.095Z,21.73
2017-03-09T05:20:22.592Z,21.76
2017-03-09T05:21:03.063Z,21.71
2017-03-09T05:21:43.564Z,21.68
2017-03-09T05:22:24.062Z,21.67
2017-03-09T05:23:04.559Z,21.7
2017-03-09T05:23:45.038Z,21.78
2017-03-09T05:24:25.520Z,21.77
2017-03-09T05:25:06.007Z,21.82
2017-03-09T05:25:46.490Z,21.7
2017-03-09T05:26:26.980Z,21.76
2017-03-09T05:27:07.468Z,21.67
2017-03-09T05:27:47.960Z,21.66
2017-03-09T05:28:28.451Z,21.73
2017-03-09T05:29:08.959Z,21.71
2017-03-09T05:29:49.811Z,21.77
2017-03-09T05:30:30.237Z,21.66
2017-03-09T05:31:10.730Z,21.71
2017-03-09T05:31:51.219Z,21.76
2017-03-09T05:32:31.714Z,21.73
2017-03-09T05:33:12.208Z,21.83
2017-03-09T05:33:52.689Z,21.77
2017-03-09T05:34:33.175Z,21.8
2017-03-09T05:35:13.667Z,21.7
2017-03-09T05:35:54.160Z,21.74
2017-03-09T05:36:34.652Z,21.7
2017-03-09T05:37:15.157Z,21.74
2017-03-09T05:37:55.648Z,21.74
2017-03-09T05:38:36.136Z,21.83
2017-03-09T05:39:16.618Z,21.82
2017-03-09T05:39:57.100Z,21.78
2017-03-09T05:40:37.612Z,21.76
2017-03-09T05:41:18.107Z,21.71
2017-03-09T05:41:58.607Z,21.76
2017-03-09T05:42:39.088Z,21.74
2017-03-09T05:43:19.582Z,21.74
2017-03-09T05:44:00.057Z,21.73
2017-03-09T05:44:40.599Z,21.77
2017-03-09T05:45:21.092Z,21.76
2017-03-09T05:46:01.576Z,21.76
2017-03-09T05:46:42.073Z,21.76
2017-03-09T05:47:22.574Z,21.76
2017-03-09T05:48:03.056Z,21.82
2017-03-09T05:48:43.535Z,21.76
2017-03-09T05:49:24.025Z,21.76
2017-03-09T05:50:04.503Z,21.71
2017-03-09T05:50:44.983Z,21.74
2017-03-09T05:51:25.470Z,21.82
2017-03-09T05:52:05.962Z,21.77
2017-03-09T05:52:46.456Z,21.8
2017-03-09T05:53:26.937Z,21.76
2017-03-09T05:54:07.423Z,21.74
2017-03-09T05:54:47.923Z,21.76
2017-03-09T05:55:28.649Z,21.74
2017-03-09T05:56:09.143Z,21.82
2017-03-09T05:56:49.641Z,21.74
2017-03-09T05:57:30.144Z,21.76
2017-03-09T05:58:10.640Z,21.74
2017-03-09T05:58:51.136Z,21.74
2017-03-09T05:59:31.623Z,21.73
2017-03-09T06:00:12.113Z,21.78
2017-03-09T06:00:52.608Z,21.74
2017-03-09T06:01:33.112Z,21.76
2017-03-09T06:02:13.591Z,21.8
2017-03-09T06:02:54.088Z,21.76
2017-03-09T06:03:34.581Z,21.71
2017-03-09T06:04:15.077Z,21.77
2017-03-09T06:04:55.581Z,21.76
2017-03-09T06:05:36.071Z,21.78
2017-03-09T06:06:16.561Z,21.77
2017-03-09T06:06:57.039Z,21.78
2017-03-09T06:07:37.535Z,21.76
2017-03-09T06:08:18.021Z,21.8
2017-03-09T06:08:58.529Z,21.77
2017-03-09T06:09:39.027Z,21.78
2017-03-09T06:10:19.511Z,21.77
2017-03-09T06:11:00.008Z,21.78
2017-03-09T06:11:40.528Z,21.82
2017-03-09T06:12:21.021Z,21.76
2017-03-09T06:13:01.511Z,21.77
2017-03-09T06:13:41.998Z,21.71
2017-03-09T06:14:22.494Z,21.76
2017-03-09T06:15:02.990Z,21.82
2017-03-09T06:15:43.459Z,21.77
2017-03-09T06:16:23.966Z,21.77
2017-03-09T06:17:04.467Z,21.76
2017-03-09T06:17:44.965Z,21.78
2017-03-09T06:18:25.477Z,21.74
2017-03-09T06:19:05.951Z,21.8
2017-03-09T06:19:46.441Z,21.78
2017-03-09T06:20:26.930Z,21.8
2017-03-09T06:21:07.437Z,21.78
2017-03-09T06:21:47.938Z,21.77
2017-03-09T06:22:28.438Z,21.82
2017-03-09T06:23:08.921Z,21.78
2017-03-09T06:23:49.402Z,21.78
2017-03-09T06:24:29.909Z,21.76
2017-03-09T06:25:10.409Z,21.77
2017-03-09T06:25:50.916Z,21.83
2017-03-09T06:26:31.415Z,21.8
2017-03-09T06:27:11.910Z,21.82
2017-03-09T06:27:52.391Z,21.82
2017-03-09T06:28:32.881Z,21.83
2017-03-09T06:29:13.383Z,21.78
2017-03-09T06:29:53.878Z,21.83
2017-03-09T06:30:34.358Z,21.8
2017-03-09T06:31:14.855Z,21.78
2017-03-09T06:31:55.356Z,21.83
2017-03-09T06:32:35.856Z,21.82
2017-03-09T06:33:16.340Z,21.8
2017-03-09T06:33:56.851Z,21.83
2017-03-09T06:34:37.355Z,21.78
2017-03-09T06:35:17.852Z,21.86
2017-03-09T06:35:58.350Z,21.85
2017-03-09T06:36:38.871Z,21.89
2017-03-09T06:37:19.356Z,21.86
2017-03-09T06:37:59.854Z,21.9
2017-03-09T06:38:40.348Z,21.86
2017-03-09T06:39:20.840Z,21.9
2017-03-09T06:40:01.346Z,21.89
2017-03-09T06:40:41.840Z,21.89
2017-03-09T06:41:22.502Z,21.89
2017-03-09T06:42:03.005Z,21.83
2017-03-09T06:42:43.502Z,21.89
2017-03-09T06:43:23.995Z,21.86
2017-03-09T06:44:04.478Z,21.86
2017-03-09T06:44:45.000Z,21.85
2017-03-09T06:45:25.484Z,21.94
2017-03-09T06:46:05.970Z,21.85
2017-03-09T06:46:46.464Z,21.85
2017-03-09T06:47:26.963Z,21.89
2017-03-09T06:48:07.445Z,21.92
2017-03-09T06:48:47.939Z,21.92
2017-03-09T06:49:28.431Z,21.85
2017-03-09T06:50:08.932Z,21.89
2017-03-09T06:50:49.441Z,21.9
2017-03-09T06:51:29.928Z,21.89
2017-03-09T06:52:10.478Z,21.9
2017-03-09T06:52:50.970Z,21.96
2017-03-09T06:53:31.472Z,21.94
2017-03-09T06:54:11.958Z,21.94
2017-03-09T06:54:52.441Z,21.9
2017-03-09T06:55:32.934Z,21.9
2017-03-09T06:56:13.434Z,21.89
2017-03-09T06:56:53.932Z,21.89
2017-03-09T06:57:34.432Z,21.92
2017-03-09T06:58:14.935Z,21.93
2017-03-09T06:58:55.443Z,21.94
2017-03-09T06:59:35.936Z,21.9
2017-03-09T07:00:16.420Z,21.89
2017-03-09T07:00:56.884Z,21.97
2017-03-09T07:01:37.391Z,21.9
2017-03-09T07:02:17.875Z,22.07
2017-03-09T07:02:58.373Z,21.99
2017-03-09T07:03:38.870Z,21.93
2017-03-09T07:04:19.359Z,21.94
2017-03-09T07:04:59.851Z,21.92
2017-03-09T07:05:40.350Z,21.92
2017-03-09T07:06:21.197Z,21.99
2017-03-09T07:07:01.783Z,21.83
2017-03-09T07:07:42.269Z,21.96
2017-03-09T07:08:22.750Z,21.94
2017-03-09T07:09:03.255Z,22
2017-03-09T07:09:43.738Z,22.04
2017-03-09T07:10:24.316Z,21.96
2017-03-09T07:11:04.828Z,21.86
2017-03-09T07:11:45.322Z,21.96
2017-03-09T07:12:25.827Z,21.96
2017-03-09T07:13:06.313Z,21.93
2017-03-09T07:13:46.804Z,22
2017-03-09T07:14:27.294Z,21.96
2017-03-09T07:15:08.580Z,21.93
2017-03-09T07:15:49.073Z,21.9
2017-03-09T07:16:29.574Z,21.85
2017-03-09T07:17:10.061Z,22
2017-03-09T07:17:50.541Z,21.92
2017-03-09T07:18:31.019Z,21.9
2017-03-09T07:19:11.515Z,21.99
2017-03-09T07:19:52.012Z,22
2017-03-09T07:20:32.511Z,21.96
2017-03-09T07:21:13.008Z,21.93
2017-03-09T07:21:53.510Z,21.97
2017-03-09T07:22:33.995Z,21.9
2017-03-09T07:23:14.518Z,21.99
2017-03-09T07:23:55.010Z,21.99
2017-03-09T07:24:35.513Z,21.99
2017-03-09T07:25:15.994Z,22.04
2017-03-09T07:25:56.501Z,21.96
2017-03-09T07:26:36.971Z,22.02
2017-03-09T07:27:17.452Z,22.07
2017-03-09T07:27:57.947Z,22
2017-03-09T07:28:38.432Z,22.02
2017-03-09T07:29:18.912Z,22.05
2017-03-09T07:29:59.402Z,22.11
2017-03-09T07:30:39.887Z,22.05
2017-03-09T07:31:20.395Z,22.02
2017-03-09T07:32:00.880Z,22.11
2017-03-09T07:32:41.396Z,22.09
2017-03-09T07:33:21.881Z,22.05
2017-03-09T07:34:02.375Z,22.08
2017-03-09T07:34:42.855Z,22.16
2017-03-09T07:35:23.344Z,22.09
2017-03-09T07:36:03.843Z,22.04
2017-03-09T07:36:44.330Z,22.08
2017-03-09T07:37:24.808Z,22.12
2017-03-09T07:38:05.313Z,22.07
2017-03-09T07:38:45.787Z,22.08
2017-03-09T07:39:26.290Z,22.08
2017-03-09T07:40:06.776Z,22.08
2017-03-09T07:40:47.302Z,22.16
2017-03-09T07:41:27.767Z,22.05
2017-03-09T07:42:08.250Z,22.07
2017-03-09T07:42:48.736Z,22.08
2017-03-09T07:43:29.233Z,22.15
2017-03-09T07:44:09.732Z,22.09
2017-03-09T07:44:50.211Z,22.14
2017-03-09T07:45:30.694Z,22.09
2017-03-09T07:46:11.187Z,22.15
2017-03-09T07:46:51.673Z,22.08
2017-03-09T07:47:32.172Z,22.07
2017-03-09T07:48:12.642Z,22.15
2017-03-09T07:48:53.146Z,22.15
2017-03-09T07:49:33.623Z,22.12
2017-03-09T07:50:14.127Z,22.11
2017-03-09T07:50:54.622Z,22.18
2017-03-09T07:51:35.119Z,22.09
2017-03-09T07:52:15.585Z,22.09
2017-03-09T07:52:56.072Z,22.08
2017-03-09T07:53:36.571Z,22.11
2017-03-09T07:54:17.061Z,22.12
2017-03-09T07:54:57.550Z,22.12
2017-03-09T07:55:38.031Z,22.15
2017-03-09T07:56:18.519Z,22.09
2017-03-09T07:56:59.003Z,22.15
2017-03-09T07:57:39.512Z,22.07
2017-03-09T07:58:20.000Z,22.07
2017-03-09T07:59:00.478Z,22.12
2017-03-09T07:59:40.965Z,22.07
2017-03-09T08:00:21.446Z,22.16
2017-03-09T08:01:01.924Z,22.09
2017-03-09T08:01:42.414Z,22.22
2017-03-09T08:02:22.890Z,22.07
2017-03-09T08:03:03.377Z,22.14
2017-03-09T08:03:43.873Z,22.08
2017-03-09T08:04:24.375Z,22.11
2017-03-09T08:05:04.879Z,22.18
2017-03-09T08:05:45.381Z,22.07
2017-03-09T08:06:25.866Z,22.22
2017-03-09T08:07:06.369Z,22.11
2017-03-09T08:07:46.857Z,22.09
2017-03-09T08:08:27.355Z,22.08
2017-03-09T08:09:07.854Z,22.15
2017-03-09T08:09:48.348Z,22.08
2017-03-09T08:10:28.882Z,22.2
2017-03-09T08:11:09.361Z,22.08
2017-03-09T08:11:49.853Z,22.09
2017-03-09T08:12:30.343Z,22.2
2017-03-09T08:13:10.839Z,22.12
2017-03-09T08:13:51.323Z,22.14
2017-03-09T08:14:31.813Z,22.2
2017-03-09T08:15:12.321Z,22.11
2017-03-09T08:15:52.813Z,22.14
2017-03-09T08:16:33.325Z,22.26
2017-03-09T08:17:13.810Z,22.15
2017-03-09T08:17:54.530Z,22.14
2017-03-09T08:18:35.024Z,22.24
2017-03-09T08:19:15.497Z,22.2
2017-03-09T08:19:56.020Z,22.3
2017-03-09T08:20:36.526Z,22.23
2017-03-09T08:21:17.051Z,22.15
2017-03-09T08:21:57.572Z,22.22
2017-03-09T08:22:38.098Z,22.26
2017-03-09T08:23:18.602Z,22.26
2017-03-09T08:23:59.059Z,22.18
2017-03-09T08:24:39.541Z,22.12
2017-03-09T08:25:20.034Z,22.3
2017-03-09T08:26:01.154Z,22.27
2017-03-09T08:26:41.648Z,22.15
2017-03-09T08:27:22.152Z,22.23
2017-03-09T08:28:02.664Z,22.15
2017-03-09T08:28:43.150Z,22.15
2017-03-09T08:29:25.528Z,22.22
2017-03-09T08:30:05.666Z,22.16
2017-03-09T08:30:46.153Z,22.15
2017-03-09T08:31:26.663Z,22.15
2017-03-09T08:32:07.149Z,22.15
2017-03-09T08:32:47.771Z,22.22
2017-03-09T08:33:28.372Z,22.16
2017-03-09T08:34:08.822Z,22.08
2017-03-09T08:34:49.313Z,22.12
2017-03-09T08:35:29.784Z,22.23
2017-03-09T08:36:10.278Z,22.26
2017-03-09T08:36:51.443Z,22.12
2017-03-09T08:40:41.008Z,22.2
2017-03-09T08:41:21.497Z,22.14
2017-03-09T08:42:01.978Z,22.15
2017-03-09T08:42:42.443Z,22.26
2017-03-09T08:43:22.928Z,22.26
2017-03-09T08:44:03.455Z,22.27
2017-03-09T08:44:43.951Z,22.27
2017-03-09T08:45:24.448Z,22.31
2017-03-09T08:46:04.972Z,22.22
2017-03-09T08:47:42.443Z,22.16
2017-03-09T08:48:22.934Z,22.24
2017-03-09T08:49:03.446Z,22.16
2017-03-09T08:49:43.927Z,22.24